Time;durP1;ratioP1;P1;durP2;ratioP2;P2;SDS_P1;SDS_P2;PMS_P1;PMS_P2;Temp;Humidity;BMP_temperature;BMP_pressure;BME280_temperature;BME280_humidity;BME280_pressure;Samples;Min_cycle;Max_cycle;Signal;HPM_P1;HPM_P2
2023/10/05 00:00:36;;;;;;;0.50;0.50;;;10.80;99.90;;;;;;5075585;28;20802;-84
2023/10/05 00:03:05;;;;;;;0.50;0.40;;;10.60;99.90;;;;;;5075316;28;20480;-83
2023/10/05 00:05:35;;;;;;;1.33;1.00;;;10.60;99.90;;;;;;5075581;28;20455;-83
2023/10/05 00:08:04;;;;;;;1.60;0.50;;;10.60;99.90;;;;;;5075480;28;20456;-84
2023/10/05 00:10:33;;;;;;;0.30;0.30;;;10.50;99.90;;;;;;5075231;28;20441;-84
2023/10/05 00:13:05;;;;;;;0.50;0.50;;;10.50;99.90;;;;;;5075259;28;20453;-84
2023/10/05 00:15:32;;;;;;;0.40;0.30;;;10.50;99.90;;;;;;5075588;28;20436;-84
2023/10/05 00:17:59;;;;;;;1.43;0.73;;;10.50;99.90;;;;;;5075183;28;20523;-84
2023/10/05 00:20:32;;;;;;;1.47;0.50;;;10.40;99.90;;;;;;5075161;28;20502;-84
2023/10/05 00:23:02;;;;;;;1.30;0.90;;;11.20;99.90;;;;;;5074864;28;20481;-84
2023/10/05 00:25:33;;;;;;;3.60;0.57;;;10.50;99.90;;;;;;5074723;28;20437;-84
2023/10/05 00:28:04;;;;;;;0.50;0.50;;;10.40;99.90;;;;;;5075057;28;20430;-84
2023/10/05 00:30:31;;;;;;;0.40;0.40;;;11.40;99.90;;;;;;5074523;28;20430;-84
2023/10/05 00:32:59;;;;;;;1.77;0.53;;;10.40;99.90;;;;;;5075098;28;20547;-84
2023/10/05 00:35:33;;;;;;;0.70;0.60;;;10.40;99.90;;;;;;5074833;28;20475;-84
2023/10/05 00:38:08;;;;;;;0.70;0.70;;;10.40;99.90;;;;;;5074731;28;20457;-84
2023/10/05 00:40:42;;;;;;;0.57;0.50;;;10.40;99.90;;;;;;5074854;28;20428;-84
2023/10/05 00:43:12;;;;;;;0.97;0.60;;;10.40;99.90;;;;;;5074057;28;20488;-84
2023/10/05 00:45:44;;;;;;;1.00;0.60;;;10.40;99.90;;;;;;5074642;28;20472;-84
2023/10/05 00:48:26;;;;;;;0.63;0.47;;;10.40;99.90;;;;;;5074461;28;20449;-84
2023/10/05 00:50:54;;;;;;;2.23;0.83;;;10.40;99.90;;;;;;5074686;28;20434;-84
2023/10/05 00:53:22;;;;;;;1.13;0.40;;;10.40;99.90;;;;;;5074452;28;20467;-84
2023/10/05 00:55:59;;;;;;;1.00;0.57;;;10.40;99.90;;;;;;5074189;28;20434;-84
2023/10/05 00:58:34;;;;;;;0.60;0.40;;;10.40;99.90;;;;;;5074540;28;20771;-84
2023/10/05 01:01:05;;;;;;;1.43;0.97;;;10.40;99.90;;;;;;5074301;28;20486;-84
2023/10/05 01:03:45;;;;;;;1.20;0.60;;;10.40;99.90;;;;;;5074147;28;20488;-84
2023/10/05 01:06:22;;;;;;;0.73;0.73;;;10.40;99.90;;;;;;5074404;28;20490;-84
2023/10/05 01:08:59;;;;;;;1.83;0.80;;;10.40;99.90;;;;;;5074165;28;20902;-84
2023/10/05 01:11:37;;;;;;;0.50;0.50;;;10.40;99.90;;;;;;5074323;28;20468;-84
2023/10/05 01:14:04;;;;;;;2.57;1.00;;;10.50;99.90;;;;;;5073827;28;20540;-84
2023/10/05 01:16:33;;;;;;;1.17;0.63;;;10.50;99.90;;;;;;5073707;28;20897;-83
2023/10/05 01:19:00;;;;;;;5.40;1.13;;;10.40;99.90;;;;;;5073846;28;20448;-84
2023/10/05 01:21:27;;;;;;;0.80;0.70;;;10.50;99.90;;;;;;5073895;28;20461;-84
2023/10/05 01:23:55;;;;;;;1.80;1.23;;;10.50;99.90;;;;;;5073602;28;20487;-84
2023/10/05 01:26:22;;;;;;;1.63;0.70;;;10.40;99.90;;;;;;5074002;28;20476;-84
2023/10/05 01:28:49;;;;;;;0.47;0.47;;;10.40;99.90;;;;;;5073791;28;20441;-84
2023/10/05 01:31:17;;;;;;;1.13;0.80;;;10.40;99.90;;;;;;5073833;28;20449;-84
2023/10/05 01:33:44;;;;;;;1.33;0.77;;;10.40;99.90;;;;;;5073775;28;20469;-84
2023/10/05 01:36:12;;;;;;;3.43;0.97;;;11.60;99.90;;;;;;5073790;28;20456;-84
2023/10/05 01:38:39;;;;;;;0.87;0.73;;;10.90;99.90;;;;;;5073613;28;21022;-84
2023/10/05 01:41:09;;;;;;;1.37;0.60;;;11.20;99.90;;;;;;5073249;28;20549;-84
2023/10/05 01:43:42;;;;;;;0.60;0.60;;;10.40;99.90;;;;;;5073144;28;20510;-84
2023/10/05 01:46:10;;;;;;;0.80;0.60;;;10.40;99.90;;;;;;5073849;28;20528;-84
2023/10/05 01:48:37;;;;;;;1.27;1.17;;;10.30;99.90;;;;;;5073555;28;20459;-84
2023/10/05 01:51:09;;;;;;;0.67;0.67;;;10.30;99.90;;;;;;5073668;28;20494;-84
2023/10/05 01:53:36;;;;;;;0.67;0.67;;;10.30;99.90;;;;;;5073273;28;20506;-84
2023/10/05 01:56:03;;;;;;;0.70;0.60;;;10.20;99.90;;;;;;5073165;28;20460;-84
2023/10/05 01:58:34;;;;;;;0.50;0.50;;;10.10;99.90;;;;;;5073430;28;20448;-85
2023/10/05 02:01:05;;;;;;;1.27;0.60;;;10.10;99.90;;;;;;5073469;28;20429;-84
2023/10/05 02:03:33;;;;;;;0.70;0.60;;;10.10;99.90;;;;;;5073441;28;20515;-84
2023/10/05 02:06:05;;;;;;;0.50;0.50;;;10.10;99.90;;;;;;5073333;28;20444;-84
2023/10/05 02:08:33;;;;;;;5.37;0.50;;;10.10;99.90;;;;;;5072261;28;20445;-84
2023/10/05 02:11:04;;;;;;;1.80;0.60;;;10.20;99.90;;;;;;5074090;28;20445;-84
2023/10/05 02:13:32;;;;;;;0.40;0.40;;;10.20;99.90;;;;;;5073278;28;20978;-84
2023/10/05 02:15:59;;;;;;;1.83;0.50;;;10.20;99.90;;;;;;5073135;28;20542;-84
2023/10/05 02:18:28;;;;;;;0.40;0.40;;;10.20;99.90;;;;;;5073612;28;20449;-85
2023/10/05 02:21:02;;;;;;;1.33;0.60;;;10.20;99.90;;;;;;5073346;28;20445;-84
2023/10/05 02:23:37;;;;;;;1.37;0.47;;;10.10;99.90;;;;;;5072924;28;20473;-84
2023/10/05 02:26:09;;;;;;;1.27;0.57;;;10.00;99.90;;;;;;5072894;28;20973;-84
2023/10/05 02:28:39;;;;;;;1.10;1.00;;;10.00;99.90;;;;;;5073181;28;20441;-84
2023/10/05 02:31:10;;;;;;;1.20;1.10;;;10.00;99.90;;;;;;5072791;28;20957;-84
2023/10/05 02:33:39;;;;;;;1.27;0.73;;;10.00;99.90;;;;;;5073119;28;20821;-84
2023/10/05 02:36:17;;;;;;;0.50;0.50;;;10.00;99.90;;;;;;5073114;28;20452;-84
2023/10/05 02:38:49;;;;;;;1.40;0.57;;;10.00;99.90;;;;;;5073260;28;20436;-84
2023/10/05 02:41:24;;;;;;;0.50;0.50;;;9.90;99.90;;;;;;5072829;28;21050;-84
2023/10/05 02:43:53;;;;;;;1.93;0.77;;;9.90;99.90;;;;;;5082597;28;20460;-84
2023/10/05 02:46:24;;;;;;;0.40;0.40;;;9.90;99.90;;;;;;5072991;28;20457;-84
2023/10/05 02:48:51;;;;;;;0.60;0.40;;;9.90;99.90;;;;;;5073031;28;20774;-84
2023/10/05 02:51:18;;;;;;;2.00;0.70;;;9.90;99.90;;;;;;5072845;28;20453;-84
2023/10/05 02:53:46;;;;;;;1.83;0.40;;;9.80;99.90;;;;;;5074666;28;20503;-84
2023/10/05 02:56:22;;;;;;;0.60;0.50;;;9.80;99.90;;;;;;5076633;28;20484;-84
2023/10/05 02:58:55;;;;;;;0.90;0.63;;;9.90;99.90;;;;;;5076454;28;20471;-84
2023/10/05 03:01:22;;;;;;;0.93;0.60;;;9.90;99.90;;;;;;5076525;28;20453;-84
2023/10/05 03:03:50;;;;;;;0.50;0.50;;;9.90;99.90;;;;;;5076292;28;20476;-84
2023/10/05 03:06:17;;;;;;;2.70;0.57;;;10.00;99.90;;;;;;5076577;28;20854;-84
2023/10/05 03:08:46;;;;;;;10.10;1.17;;;10.00;99.90;;;;;;5076646;28;20451;-84
2023/10/05 03:11:13;;;;;;;0.40;0.40;;;10.00;99.90;;;;;;5076381;28;20937;-84
2023/10/05 03:13:40;;;;;;;0.90;0.53;;;10.00;99.90;;;;;;5076201;28;20452;-84
2023/10/05 03:16:11;;;;;;;0.77;0.50;;;10.00;99.90;;;;;;5076882;28;20457;-84
2023/10/05 03:18:41;;;;;;;1.37;0.83;;;11.20;99.90;;;;;;5077677;28;20444;-85
2023/10/05 03:21:17;;;;;;;1.57;0.73;;;10.60;99.90;;;;;;5076432;28;20421;-84
2023/10/05 03:23:45;;;;;;;0.60;0.60;;;10.00;99.90;;;;;;5076129;28;20488;-84
2023/10/05 03:26:16;;;;;;;1.20;0.60;;;10.10;99.90;;;;;;5076288;28;20451;-84
2023/10/05 03:28:43;;;;;;;1.30;0.77;;;10.10;99.90;;;;;;5076240;28;20507;-85
2023/10/05 03:31:19;;;;;;;1.57;0.77;;;10.10;99.90;;;;;;5076123;28;20456;-84
2023/10/05 03:33:51;;;;;;;1.10;1.00;;;10.10;99.90;;;;;;5076069;28;20988;-84
2023/10/05 03:36:19;;;;;;;0.50;0.50;;;10.20;99.90;;;;;;5075976;28;20433;-84
2023/10/05 03:38:55;;;;;;;0.80;0.43;;;10.20;99.90;;;;;;5075938;28;20452;-85
2023/10/05 03:41:26;;;;;;;0.70;0.70;;;10.20;99.90;;;;;;5075760;28;20585;-85
2023/10/05 03:43:55;;;;;;;0.77;0.77;;;10.20;99.90;;;;;;5075994;28;20488;-84
2023/10/05 03:46:24;;;;;;;2.30;0.60;;;10.30;99.90;;;;;;5078184;28;20452;-84
2023/10/05 03:48:53;;;;;;;0.97;0.70;;;10.30;99.90;;;;;;5075817;28;20449;-84
2023/10/05 03:51:19;;;;;;;7.20;1.10;;;10.30;99.90;;;;;;5075918;28;20451;-84
2023/10/05 03:53:52;;;;;;;0.53;0.53;;;10.80;99.90;;;;;;5075694;28;20974;-84
2023/10/05 03:56:19;;;;;;;0.77;0.77;;;10.30;99.90;;;;;;5075731;28;20512;-84
2023/10/05 03:58:47;;;;;;;0.90;0.70;;;10.30;99.90;;;;;;5075718;28;20438;-84
2023/10/05 04:01:15;;;;;;;3.47;1.33;;;10.50;99.90;;;;;;5075557;28;20495;-84
2023/10/05 04:03:44;;;;;;;0.50;0.40;;;10.30;99.90;;;;;;5075389;28;20542;-84
2023/10/05 04:06:17;;;;;;;1.00;0.70;;;10.30;99.90;;;;;;5074666;28;20456;-84
2023/10/05 04:08:49;;;;;;;0.50;0.50;;;10.30;99.90;;;;;;5075222;28;20428;-84
2023/10/05 04:11:18;;;;;;;3.60;1.07;;;10.20;99.90;;;;;;5075355;28;20477;-84
2023/10/05 04:13:45;;;;;;;0.50;0.50;;;10.20;99.90;;;;;;5075052;28;20461;-84
2023/10/05 04:16:18;;;;;;;0.63;0.60;;;10.20;99.90;;;;;;5075447;28;20452;-84
2023/10/05 04:18:49;;;;;;;0.93;0.50;;;10.20;99.90;;;;;;5074961;28;20491;-84
2023/10/05 04:21:18;;;;;;;1.80;1.00;;;10.30;99.90;;;;;;5075195;28;20429;-84
2023/10/05 04:23:49;;;;;;;1.47;0.50;;;10.30;99.90;;;;;;5074956;28;20491;-84
2023/10/05 04:26:17;;;;;;;0.50;0.50;;;10.30;99.90;;;;;;5075143;28;20426;-84
2023/10/05 04:28:52;;;;;;;3.40;1.33;;;10.30;99.90;;;;;;5075140;28;20449;-84
2023/10/05 04:31:22;;;;;;;1.33;0.67;;;10.30;99.90;;;;;;5075356;28;20435;-84
2023/10/05 04:33:50;;;;;;;0.77;0.77;;;10.30;99.90;;;;;;5074794;28;21064;-84
2023/10/05 04:36:18;;;;;;;1.00;0.70;;;10.30;99.90;;;;;;5074845;28;20456;-85
2023/10/05 04:38:45;;;;;;;1.37;0.67;;;10.30;99.90;;;;;;5074815;28;20926;-84
2023/10/05 04:41:13;;;;;;;1.47;0.80;;;10.30;99.90;;;;;;5074548;28;20485;-84
2023/10/05 04:43:40;;;;;;;0.57;0.57;;;10.30;99.90;;;;;;5074689;28;20542;-84
2023/10/05 04:46:09;;;;;;;0.80;0.60;;;10.30;99.90;;;;;;5075055;28;20444;-84
2023/10/05 04:48:35;;;;;;;0.80;0.80;;;10.20;99.90;;;;;;5074824;28;20548;-84
2023/10/05 04:51:05;;;;;;;0.80;0.60;;;10.30;99.90;;;;;;5074403;28;20449;-83
2023/10/05 04:53:32;;;;;;;0.93;0.90;;;11.50;99.90;;;;;;5074273;28;20471;-84
2023/10/05 04:56:12;;;;;;;1.00;0.90;;;10.30;99.90;;;;;;5074374;28;20445;-84
2023/10/05 04:58:53;;;;;;;0.80;0.50;;;10.30;99.90;;;;;;5074596;28;20921;-84
2023/10/05 05:01:28;;;;;;;0.77;0.50;;;10.40;99.90;;;;;;5074621;28;20441;-84
2023/10/05 05:04:12;;;;;;;0.50;0.50;;;11.00;99.90;;;;;;5074013;28;20988;-84
2023/10/05 05:06:42;;;;;;;0.60;0.60;;;11.10;99.90;;;;;;5074323;28;20433;-84
2023/10/05 05:09:12;;;;;;;3.43;0.80;;;10.60;99.90;;;;;;5074275;28;20444;-84
2023/10/05 05:11:39;;;;;;;0.40;0.40;;;10.40;99.90;;;;;;5074184;28;20869;-84
2023/10/05 05:14:07;;;;;;;0.57;0.57;;;10.40;99.90;;;;;;5073869;28;20457;-84
2023/10/05 05:16:35;;;;;;;0.73;0.73;;;10.70;99.90;;;;;;5074095;28;20449;-84
2023/10/05 05:19:02;;;;;;;0.80;0.60;;;10.30;99.90;;;;;;5074042;28;20449;-84
2023/10/05 05:21:29;;;;;;;1.80;0.73;;;10.40;99.90;;;;;;5073680;28;20429;-84
2023/10/05 05:23:58;;;;;;;0.50;0.40;;;10.40;99.90;;;;;;5074143;28;20477;-84
2023/10/05 05:26:25;;;;;;;0.80;0.77;;;11.40;99.90;;;;;;5073971;28;20522;-84
2023/10/05 05:28:53;;;;;;;0.60;0.60;;;10.40;99.90;;;;;;5073878;28;20562;-84
2023/10/05 05:31:20;;;;;;;1.00;0.83;;;11.20;99.90;;;;;;5073881;28;20440;-84
2023/10/05 05:33:48;;;;;;;0.83;0.60;;;10.90;99.90;;;;;;5073719;28;20469;-84
2023/10/05 05:36:16;;;;;;;3.23;0.77;;;10.40;99.90;;;;;;5073880;28;20938;-84
2023/10/05 05:38:47;;;;;;;1.93;0.80;;;10.40;99.90;;;;;;5073806;28;20929;-84
2023/10/05 05:41:18;;;;;;;1.77;0.70;;;10.40;99.90;;;;;;5073351;28;21084;-84
2023/10/05 05:43:46;;;;;;;1.10;0.57;;;10.40;99.90;;;;;;5073633;28;20496;-84
2023/10/05 05:46:14;;;;;;;0.50;0.50;;;10.40;99.90;;;;;;5073704;28;20527;-84
2023/10/05 05:48:42;;;;;;;3.30;1.47;;;10.50;99.90;;;;;;5073607;28;20853;-85
2023/10/05 05:51:14;;;;;;;0.70;0.50;;;10.50;99.90;;;;;;5073594;28;20453;-85
2023/10/05 05:53:41;;;;;;;0.73;0.73;;;10.50;99.90;;;;;;5073315;28;20460;-84
2023/10/05 05:56:09;;;;;;;0.70;0.70;;;10.50;99.90;;;;;;5073526;28;20433;-84
2023/10/05 05:58:38;;;;;;;0.40;0.40;;;10.80;99.90;;;;;;5073175;28;20445;-85
2023/10/05 06:01:06;;;;;;;5.93;0.77;;;10.60;99.90;;;;;;5073443;28;20789;-84
2023/10/05 06:03:33;;;;;;;0.83;0.50;;;10.70;99.90;;;;;;5073245;28;20488;-84
2023/10/05 06:06:03;;;;;;;0.67;0.53;;;10.70;99.90;;;;;;5073044;28;20453;-84
2023/10/05 06:08:30;;;;;;;0.50;0.50;;;10.60;99.90;;;;;;5073508;28;20453;-84
2023/10/05 06:10:57;;;;;;;0.80;0.60;;;10.60;99.90;;;;;;5073445;28;20444;-84
2023/10/05 06:13:24;;;;;;;0.43;0.43;;;10.60;99.90;;;;;;5073044;28;21020;-85
2023/10/05 06:15:52;;;;;;;0.87;0.50;;;10.60;99.90;;;;;;5073244;28;20449;-85
2023/10/05 06:18:18;;;;;;;0.47;0.47;;;10.60;99.90;;;;;;5073410;28;20444;-84
2023/10/05 06:20:46;;;;;;;0.60;0.50;;;11.30;99.90;;;;;;5073407;28;20449;-85
2023/10/05 06:23:13;;;;;;;0.60;0.60;;;10.60;99.90;;;;;;5073189;28;20480;-85
2023/10/05 06:25:40;;;;;;;0.90;0.70;;;10.70;99.90;;;;;;5072842;28;21033;-85
2023/10/05 06:28:08;;;;;;;1.33;0.80;;;10.70;99.90;;;;;;5074113;28;20449;-85
2023/10/05 06:30:36;;;;;;;1.13;0.60;;;10.80;99.90;;;;;;5077251;28;20549;-85
2023/10/05 06:33:07;;;;;;;0.60;0.60;;;10.90;99.90;;;;;;5077043;28;20522;-85
2023/10/05 06:35:34;;;;;;;1.30;0.73;;;10.90;99.90;;;;;;5077001;28;20428;-85
2023/10/05 06:38:01;;;;;;;0.60;0.60;;;11.00;99.90;;;;;;5077209;28;20448;-85
2023/10/05 06:40:29;;;;;;;2.33;0.83;;;11.00;99.90;;;;;;5077354;28;20486;-85
2023/10/05 06:42:57;;;;;;;1.37;1.10;;;11.20;99.90;;;;;;5076881;28;20516;-85
2023/10/05 06:45:25;;;;;;;4.10;0.73;;;11.10;99.90;;;;;;5077053;28;20473;-85
2023/10/05 06:47:52;;;;;;;2.37;0.83;;;11.20;99.90;;;;;;5077154;28;20445;-85
2023/10/05 06:50:21;;;;;;;0.83;0.83;;;11.20;99.90;;;;;;5076906;28;20805;-85
2023/10/05 06:52:48;;;;;;;0.80;0.80;;;11.30;99.90;;;;;;5076844;28;20464;-85
2023/10/05 06:55:17;;;;;;;1.33;0.60;;;12.30;99.90;;;;;;5077102;28;20445;-85
2023/10/05 06:57:45;;;;;;;0.90;0.90;;;11.40;99.90;;;;;;5077481;28;20441;-85
2023/10/05 07:00:16;;;;;;;0.67;0.60;;;11.40;99.90;;;;;;5076412;28;20497;-85
2023/10/05 07:02:43;;;;;;;1.70;1.10;;;11.50;99.90;;;;;;5076735;28;20825;-86
2023/10/05 07:05:11;;;;;;;3.43;0.90;;;11.50;99.90;;;;;;5085918;28;20471;-85
2023/10/05 07:07:40;;;;;;;1.07;0.60;;;11.40;99.90;;;;;;5076979;28;20451;-85
2023/10/05 07:10:08;;;;;;;1.10;1.00;;;11.40;99.90;;;;;;5076877;28;20445;-86
2023/10/05 07:12:38;;;;;;;0.60;0.60;;;11.40;99.90;;;;;;5076708;28;20460;-85
2023/10/05 07:15:06;;;;;;;1.53;0.63;;;11.50;99.90;;;;;;5076418;28;21021;-85
2023/10/05 07:17:33;;;;;;;2.70;0.83;;;11.60;99.90;;;;;;5076626;28;20455;-85
2023/10/05 07:20:01;;;;;;;1.03;0.70;;;11.60;99.90;;;;;;5076612;28;20445;-85
2023/10/05 07:22:28;;;;;;;2.97;0.97;;;11.60;99.90;;;;;;5076531;28;20894;-85
2023/10/05 07:24:57;;;;;;;0.70;0.60;;;11.60;99.90;;;;;;5076150;28;20480;-85
2023/10/05 07:27:23;;;;;;;1.03;0.90;;;11.70;99.90;;;;;;5076227;28;20441;-85
2023/10/05 07:29:50;;;;;;;1.43;1.07;;;11.80;99.90;;;;;;5076170;28;20445;-85
2023/10/05 07:32:17;;;;;;;0.70;0.70;;;11.90;99.90;;;;;;5076149;28;20829;-85
2023/10/05 07:34:44;;;;;;;1.30;0.90;;;12.20;99.90;;;;;;5075937;28;20980;-86
2023/10/05 07:37:11;;;;;;;2.20;0.70;;;12.10;99.90;;;;;;5075905;28;20453;-85
2023/10/05 07:39:40;;;;;;;0.80;0.60;;;12.10;99.90;;;;;;5075441;28;20449;-85
2023/10/05 07:42:09;;;;;;;0.80;0.70;;;12.20;99.90;;;;;;5075612;28;20481;-85
2023/10/05 07:44:37;;;;;;;0.93;0.93;;;12.30;99.90;;;;;;5076017;28;20564;-86
2023/10/05 07:47:04;;;;;;;0.83;0.70;;;13.30;99.90;;;;;;5075953;28;20540;-86
2023/10/05 07:49:31;;;;;;;2.20;1.10;;;12.40;99.90;;;;;;5075969;28;20456;-86
2023/10/05 07:51:59;;;;;;;1.00;0.77;;;12.30;99.90;;;;;;5076391;28;20490;-86
2023/10/05 07:54:27;;;;;;;2.10;0.80;;;12.40;99.90;;;;;;5075769;28;21044;-86
2023/10/05 07:56:54;;;;;;;1.37;0.77;;;12.60;99.90;;;;;;5075541;28;20934;-85
2023/10/05 07:59:23;;;;;;;1.07;0.80;;;13.30;99.90;;;;;;5075637;28;20823;-85
2023/10/05 08:01:52;;;;;;;0.60;0.50;;;12.70;99.90;;;;;;5075591;28;20860;-86
2023/10/05 08:04:19;;;;;;;2.87;1.23;;;12.60;99.90;;;;;;5075669;28;20592;-86
2023/10/05 08:06:46;;;;;;;1.50;0.93;;;12.60;99.90;;;;;;5075504;28;20464;-88
2023/10/05 08:09:15;;;;;;;1.33;0.90;;;12.70;99.90;;;;;;5076428;28;20533;-86
2023/10/05 08:11:43;;;;;;;0.60;0.50;;;12.70;99.90;;;;;;5075397;28;20453;-85
2023/10/05 08:14:11;;;;;;;0.67;0.67;;;12.90;99.90;;;;;;5075460;28;20857;-85
2023/10/05 08:16:39;;;;;;;4.93;0.80;;;13.40;99.90;;;;;;5075438;28;20449;-85
2023/10/05 08:19:08;;;;;;;4.60;1.00;;;13.70;99.90;;;;;;5075834;28;20447;-85
2023/10/05 08:21:35;;;;;;;1.33;0.50;;;13.30;99.90;;;;;;5075369;28;20455;-85
2023/10/05 08:24:02;;;;;;;2.00;0.90;;;13.40;99.90;;;;;;5075113;28;20484;-85
2023/10/05 08:26:29;;;;;;;5.17;1.10;;;13.50;99.90;;;;;;5075297;28;20440;-85
2023/10/05 08:28:57;;;;;;;1.20;1.10;;;13.60;99.90;;;;;;5075186;28;20938;-85
2023/10/05 08:31:24;;;;;;;0.57;0.57;;;13.70;99.90;;;;;;5074954;28;20441;-85
2023/10/05 08:33:53;;;;;;;0.90;0.50;;;13.80;99.90;;;;;;5074937;28;20567;-85
2023/10/05 08:36:21;;;;;;;2.00;0.63;;;13.90;99.90;;;;;;5075290;28;20502;-85
2023/10/05 08:38:49;;;;;;;0.50;0.50;;;14.00;99.90;;;;;;5075079;28;20444;-85
2023/10/05 08:41:31;;;;;;;2.33;0.77;;;14.10;99.90;;;;;;5074847;28;20487;-85
2023/10/05 08:43:59;;;;;;;0.57;0.50;;;14.40;99.90;;;;;;5075023;28;20828;-85
2023/10/05 08:46:26;;;;;;;1.70;1.00;;;14.30;99.90;;;;;;5075196;28;20477;-85
2023/10/05 08:48:56;;;;;;;3.13;1.20;;;14.60;99.90;;;;;;5075051;28;20523;-85
2023/10/05 08:51:24;;;;;;;2.03;0.80;;;14.70;99.90;;;;;;5074355;28;20475;-85
2023/10/05 08:53:57;;;;;;;2.00;0.73;;;14.80;99.90;;;;;;5074761;28;20469;-84
2023/10/05 08:56:27;;;;;;;4.77;0.70;;;14.90;99.90;;;;;;5075049;28;20461;-85
2023/10/05 08:58:53;;;;;;;3.33;0.87;;;15.00;99.90;;;;;;5074670;28;20445;-85
2023/10/05 09:01:25;;;;;;;3.67;1.10;;;15.10;99.90;;;;;;5074299;28;20444;-85
2023/10/05 09:04:04;;;;;;;0.60;0.60;;;15.30;99.90;;;;;;5075227;28;20480;-85
2023/10/05 09:06:31;;;;;;;1.77;0.77;;;15.70;99.90;;;;;;5074926;28;20497;-85
2023/10/05 09:09:13;;;;;;;4.00;1.20;;;16.10;99.90;;;;;;5074417;28;20490;-85
2023/10/05 09:11:40;;;;;;;0.80;0.80;;;16.30;99.90;;;;;;5074510;28;20490;-85
2023/10/05 09:14:17;;;;;;;7.40;1.43;;;16.70;99.90;;;;;;5074424;28;20445;-84
2023/10/05 09:16:47;;;;;;;2.93;1.00;;;16.80;99.90;;;;;;5074368;28;20437;-85
2023/10/05 09:19:24;;;;;;;3.60;1.47;;;17.10;99.90;;;;;;5074300;28;20867;-85
2023/10/05 09:22:05;;;;;;;0.77;0.50;;;17.40;99.90;;;;;;5073979;28;20936;-85
2023/10/05 09:24:32;;;;;;;3.73;1.10;;;17.40;99.90;;;;;;5074443;28;20513;-83
2023/10/05 09:27:09;;;;;;;5.50;1.50;;;17.20;99.90;;;;;;5074496;28;20455;-83
2023/10/05 09:29:37;;;;;;;3.87;0.87;;;16.90;99.90;;;;;;5074692;28;20465;-87
2023/10/05 09:32:08;;;;;;;3.63;1.10;;;16.70;99.90;;;;;;5074072;28;20477;-83
2023/10/05 09:34:43;;;;;;;4.67;1.10;;;16.60;99.90;;;;;;5074321;28;20767;-85
2023/10/05 09:37:12;;;;;;;2.70;0.90;;;16.60;99.90;;;;;;5074143;28;20424;-86
2023/10/05 09:39:46;;;;;;;5.17;0.93;;;16.80;99.90;;;;;;5074108;28;20445;-86
2023/10/05 09:42:16;;;;;;;5.43;1.17;;;16.90;99.90;;;;;;5073423;28;20897;-85
2023/10/05 09:44:51;;;;;;;3.00;1.10;;;17.10;99.90;;;;;;5073625;28;20452;-85
2023/10/05 09:47:21;;;;;;;1.10;0.70;;;17.20;99.90;;;;;;5073506;28;20425;-85
2023/10/05 09:49:50;;;;;;;4.60;0.97;;;17.30;99.90;;;;;;5073718;28;20429;-85
2023/10/05 09:52:21;;;;;;;3.27;1.40;;;17.40;99.90;;;;;;5073687;28;20464;-84
2023/10/05 09:54:49;;;;;;;2.20;2.00;;;17.40;99.90;;;;;;5073796;28;20444;-87
2023/10/05 09:57:17;;;;;;;7.87;1.40;;;17.40;99.90;;;;;;5073676;28;20448;-87
2023/10/05 09:59:51;;;;;;;3.83;0.90;;;17.30;99.90;;;;;;5073292;28;20448;-87
2023/10/05 10:02:21;;;;;;;1.57;0.70;;;17.30;99.90;;;;;;5073243;28;20464;-87
2023/10/05 10:04:50;;;;;;;5.47;1.23;;;17.30;99.90;;;;;;5073356;28;20441;-87
2023/10/05 10:07:22;;;;;;;3.87;1.07;;;17.50;99.90;;;;;;5073679;28;20445;-87
2023/10/05 10:09:53;;;;;;;2.50;1.10;;;17.60;99.90;;;;;;5073476;28;20437;-86
2023/10/05 10:12:26;;;;;;;2.60;1.10;;;17.80;99.90;;;;;;5073045;28;20982;-87
2023/10/05 10:14:58;;;;;;;1.40;0.90;;;17.70;99.90;;;;;;5073385;28;20502;-87
2023/10/05 10:17:28;;;;;;;1.47;1.00;;;17.80;99.90;;;;;;5073443;28;20512;-87
2023/10/05 10:20:28;;;;;;;2.70;1.00;;;17.80;99.90;;;;;;5073082;28;20449;-87
2023/10/05 10:23:08;;;;;;;9.97;1.53;;;18.00;99.90;;;;;;5073109;28;20464;-87
2023/10/05 10:25:38;;;;;;;1.37;0.90;;;18.30;99.90;;;;;;5073160;28;21016;-87
2023/10/05 10:28:17;;;;;;;1.17;0.83;;;18.60;99.90;;;;;;5073465;28;20456;-87
2023/10/05 10:30:47;;;;;;;2.10;0.90;;;18.80;99.90;;;;;;5072997;28;20429;-86
2023/10/05 10:33:30;;;;;;;1.07;1.00;;;19.00;99.90;;;;;;5073206;28;20471;-87
2023/10/05 10:35:59;;;;;;;3.07;1.00;;;19.60;99.90;;;;;;5073092;28;20429;-87
2023/10/05 10:38:27;;;;;;;3.17;0.97;;;20.60;99.90;;;;;;5073331;28;20444;-87
2023/10/05 10:41:15;;;;;;;3.37;1.03;;;21.80;99.90;;;;;;5072824;28;20540;-86
2023/10/05 10:43:48;;;;;;;2.50;1.33;;;23.00;99.90;;;;;;5072938;28;20460;-86
2023/10/05 10:46:20;;;;;;;2.90;0.70;;;23.10;99.90;;;;;;5073263;28;20521;-85
2023/10/05 10:48:53;;;;;;;2.60;0.60;;;22.70;99.90;;;;;;5073012;28;20817;-86
2023/10/05 10:51:22;;;;;;;0.60;0.53;;;22.20;99.90;;;;;;5072977;28;20425;-84
2023/10/05 10:53:59;;;;;;;3.07;1.10;;;21.60;99.90;;;;;;5072945;28;20465;-86
2023/10/05 10:56:29;;;;;;;1.47;1.23;;;20.90;99.90;;;;;;5073070;28;20801;-86
2023/10/05 10:59:08;;;;;;;2.17;1.00;;;20.30;99.90;;;;;;5073125;28;20433;-86
2023/10/05 11:01:41;;;;;;;3.40;0.90;;;19.90;99.90;;;;;;5072803;28;20441;-86
2023/10/05 11:04:23;;;;;;;2.90;0.63;;;19.50;99.90;;;;;;5072705;28;20468;-86
2023/10/05 11:06:59;;;;;;;3.43;1.03;;;19.20;99.90;;;;;;5072892;28;20468;-86
2023/10/05 11:09:35;;;;;;;1.90;0.83;;;19.00;99.90;;;;;;5072877;28;20902;-85
2023/10/05 11:12:11;;;;;;;3.77;1.13;;;19.10;99.90;;;;;;5072678;28;20526;-85
2023/10/05 11:14:43;;;;;;;1.83;1.20;;;18.50;99.90;;;;;;5074722;28;20810;-83
2023/10/05 11:17:28;;;;;;;4.27;1.13;;;18.20;99.90;;;;;;5077204;28;20417;-83
2023/10/05 11:19:55;;;;;;;2.77;0.67;;;18.10;99.90;;;;;;5076586;28;20433;-83
2023/10/05 11:22:29;;;;;;;3.30;1.03;;;18.00;99.90;;;;;;5075877;28;20468;-83
2023/10/05 11:25:15;;;;;;;5.10;1.10;;;18.00;99.90;;;;;;5076276;28;20490;-83
2023/10/05 11:27:54;;;;;;;13.50;1.23;;;17.90;99.90;;;;;;5076383;28;20937;-85
2023/10/05 11:30:22;;;;;;;1.50;0.80;;;17.80;99.90;;;;;;5076100;28;20472;-83
2023/10/05 11:32:54;;;;;;;5.80;1.23;;;17.80;99.90;;;;;;5075647;28;20563;-83
2023/10/05 11:35:28;;;;;;;1.67;1.03;;;17.80;99.90;;;;;;5076757;28;20941;-83
2023/10/05 11:38:03;;;;;;;3.13;1.20;;;17.90;99.90;;;;;;5075665;28;20440;-85
2023/10/05 11:40:34;;;;;;;1.00;0.57;;;17.80;99.90;;;;;;5075993;28;20527;-83
2023/10/05 11:43:04;;;;;;;3.33;1.40;;;17.70;99.90;;;;;;5075376;28;20489;-83
2023/10/05 11:45:33;;;;;;;2.00;1.00;;;17.60;99.90;;;;;;5075852;28;20473;-83
2023/10/05 11:48:11;;;;;;;2.30;1.03;;;17.60;99.90;;;;;;5075837;28;20487;-83
2023/10/05 11:50:38;;;;;;;2.20;0.90;;;17.40;99.90;;;;;;5076418;28;20809;-83
2023/10/05 11:53:11;;;;;;;12.00;1.10;;;17.40;99.90;;;;;;5075849;28;20556;-83
2023/10/05 11:55:39;;;;;;;3.80;1.50;;;17.40;99.90;;;;;;5075658;28;20483;-83
2023/10/05 11:58:08;;;;;;;2.13;1.17;;;17.30;99.90;;;;;;5075585;28;20510;-85
2023/10/05 12:00:35;;;;;;;2.20;0.93;;;17.40;99.90;;;;;;5075519;28;20464;-84
2023/10/05 12:03:02;;;;;;;3.07;1.00;;;17.50;99.90;;;;;;5075442;28;20469;-84
2023/10/05 12:05:30;;;;;;;4.33;0.80;;;17.50;99.90;;;;;;5075351;28;20442;-84
2023/10/05 12:07:59;;;;;;;3.43;0.70;;;17.50;99.90;;;;;;5075377;28;20518;-84
2023/10/05 12:10:27;;;;;;;1.27;1.17;;;17.50;99.90;;;;;;5075388;28;20540;-84
2023/10/05 12:12:55;;;;;;;1.67;0.80;;;17.60;99.90;;;;;;5075213;28;20471;-84
2023/10/05 12:15:22;;;;;;;1.60;0.80;;;17.60;99.90;;;;;;5075342;28;20448;-85
2023/10/05 12:17:49;;;;;;;4.33;1.70;;;17.50;99.90;;;;;;5074866;28;20949;-84
2023/10/05 12:20:18;;;;;;;2.60;1.53;;;17.40;99.90;;;;;;5075141;28;20433;-84
2023/10/05 12:22:45;;;;;;;5.07;0.83;;;17.40;99.90;;;;;;5075016;28;20486;-85
2023/10/05 12:25:14;;;;;;;3.63;1.67;;;17.40;99.90;;;;;;5074940;28;20492;-84
2023/10/05 12:27:44;;;;;;;3.40;0.70;;;17.50;99.90;;;;;;5074448;28;21118;-84
2023/10/05 12:30:11;;;;;;;3.43;1.30;;;17.60;99.90;;;;;;5074933;28;20451;-84
2023/10/05 12:32:39;;;;;;;1.30;0.77;;;17.60;99.90;;;;;;5074900;28;20536;-84
2023/10/05 12:35:10;;;;;;;2.30;0.80;;;17.60;99.90;;;;;;5074813;28;20449;-84
2023/10/05 12:37:40;;;;;;;1.27;0.90;;;17.60;99.90;;;;;;5074812;28;20425;-84
2023/10/05 12:40:17;;;;;;;2.20;0.80;;;17.60;99.90;;;;;;5074958;28;20444;-84
2023/10/05 12:42:51;;;;;;;0.80;0.70;;;17.60;99.90;;;;;;5074242;28;20888;-84
2023/10/05 12:45:22;;;;;;;2.53;1.10;;;17.50;99.90;;;;;;5074693;28;20465;-84
2023/10/05 12:47:49;;;;;;;2.33;0.60;;;17.50;99.90;;;;;;5074576;28;20469;-84
2023/10/05 12:50:16;;;;;;;1.17;1.03;;;17.40;99.90;;;;;;5074575;28;20539;-84
2023/10/05 12:52:43;;;;;;;2.03;0.70;;;17.40;99.90;;;;;;5074222;28;20450;-84
2023/10/05 12:55:10;;;;;;;2.43;0.97;;;17.30;99.90;;;;;;5074485;28;20441;-84
2023/10/05 12:57:38;;;;;;;1.83;0.70;;;17.30;99.90;;;;;;5074186;28;20797;-84
2023/10/05 13:00:19;;;;;;;3.23;0.93;;;17.20;99.90;;;;;;5074601;28;20582;-86
2023/10/05 13:02:51;;;;;;;1.13;0.87;;;17.20;99.90;;;;;;5074630;28;20468;-87